createdAt,value
2023-02-17T00:01:23.006Z,100784.84
2023-02-17T00:06:22.085Z,100789.88
2023-02-17T00:11:19.442Z,100792.59
2023-02-17T00:16:21.503Z,100794.25
2023-02-17T00:21:20.966Z,100797.34
2023-02-17T00:26:18.325Z,100788.25
2023-02-17T00:31:18.394Z,100782.09
2023-02-17T00:36:18.449Z,100788.91
2023-02-17T00:41:19.147Z,100789.78
2023-02-17T00:46:17.817Z,100799.31
2023-02-17T00:51:15.674Z,100797.25
2023-02-17T00:56:12.707Z,100794.41
2023-02-17T01:01:10.893Z,100802.28
2023-02-17T01:06:09.961Z,100793.25
2023-02-17T01:11:06.392Z,100789.66
2023-02-17T01:16:02.904Z,100798.56
2023-02-17T01:20:59.316Z,100791.38
2023-02-17T01:25:55.681Z,100790.41
2023-02-17T01:30:52.164Z,100779.91
2023-02-17T01:35:48.490Z,100790.25
2023-02-17T01:40:48.340Z,100785.69
2023-02-17T01:46:07.413Z,100773.19
2023-02-17T01:51:33.245Z,100775.06
2023-02-17T01:56:31.783Z,100771.47
2023-02-17T02:01:28.846Z,100771.47
2023-02-17T02:06:27.337Z,100776.78
2023-02-17T02:11:24.188Z,100776.56
2023-02-17T02:16:27.246Z,100764.25
2023-02-17T02:21:52.554Z,100763.41
2023-02-17T02:27:15.418Z,100763.22
2023-02-17T02:32:36.066Z,100771.06
2023-02-17T02:37:50.793Z,100776.19
2023-02-17T02:42:47.221Z,100778.66
2023-02-17T02:47:48.318Z,100779.38
2023-02-17T02:52:51.357Z,100782.69
2023-02-17T02:58:13.727Z,100796.59
2023-02-17T03:03:16.744Z,100787.72
2023-02-17T03:08:28.262Z,100793.78
2023-02-17T03:13:25.411Z,100792.63
2023-02-17T03:18:21.761Z,100791.56
2023-02-17T03:23:18.508Z,100765.91
2023-02-17T03:28:15.629Z,100758.03
2023-02-17T03:33:12.010Z,100759.81
2023-02-17T03:38:08.394Z,100746.56
2023-02-17T03:43:04.817Z,100748.25
2023-02-17T03:48:01.170Z,100755.28
2023-02-17T03:52:57.699Z,100748.91
2023-02-17T03:57:54.020Z,100755.97
2023-02-17T04:02:50.388Z,100748.84
2023-02-17T04:07:46.731Z,100749.72
2023-02-17T04:12:43.179Z,100734.44
2023-02-17T04:17:39.505Z,100732.72
2023-02-17T04:22:36.032Z,100727.34
2023-02-17T04:27:32.401Z,100731.16
2023-02-17T04:32:28.736Z,100737.22
2023-02-17T04:37:25.102Z,100720.78
2023-02-17T04:42:21.438Z,100705.63
2023-02-17T04:47:17.827Z,100691.28
2023-02-17T04:52:14.182Z,100677.06
2023-02-17T04:57:10.636Z,100646.72
2023-02-17T05:02:07.076Z,100632.25
2023-02-17T05:07:03.480Z,100598.69
2023-02-17T05:11:59.843Z,100579.16
2023-02-17T05:16:56.186Z,100562.88
2023-02-17T05:21:52.555Z,100530.22
2023-02-17T05:26:49.011Z,100510.53
2023-02-17T05:31:45.618Z,100495.16
2023-02-17T05:36:42.044Z,100501.09
2023-02-17T05:41:38.380Z,100482.03
2023-02-17T05:46:35.082Z,100473.84
2023-02-17T05:51:31.555Z,100442.72
2023-02-17T05:56:28.103Z,100405.78
2023-02-17T06:01:24.452Z,100430.88
2023-02-17T06:06:20.920Z,100422.75
2023-02-17T06:11:17.332Z,100420.25
2023-02-17T06:16:13.923Z,100426.03
2023-02-17T06:21:10.332Z,100405.41
2023-02-17T06:26:06.994Z,100389.13
2023-02-17T06:31:03.791Z,100386.72
2023-02-17T06:36:00.262Z,100371.53
2023-02-17T06:40:56.661Z,100389.91
2023-02-17T06:45:53.383Z,100397.84
2023-02-17T06:50:50.201Z,100405.88
2023-02-17T06:55:46.901Z,100401.78
2023-02-17T07:00:43.334Z,100388.06
2023-02-17T07:05:40.232Z,100385.41
2023-02-17T07:10:37.727Z,100374.53
2023-02-17T07:15:35.459Z,100383.97
2023-02-17T07:20:32.428Z,100390.25
2023-02-17T07:25:28.767Z,100383.63
2023-02-17T07:30:25.173Z,100385.09
2023-02-17T07:35:21.649Z,100371.44
2023-02-17T07:40:18.192Z,100364.91
2023-02-17T07:45:14.575Z,100354.59
2023-02-17T07:50:11.422Z,100357.41
2023-02-17T07:55:08.146Z,100361.63
2023-02-17T08:00:05.964Z,100369.00
2023-02-17T08:05:02.331Z,100373.69
2023-02-17T08:10:17.921Z,100369.22
2023-02-17T08:15:14.493Z,100371.13
2023-02-17T08:20:13.265Z,100369.66
2023-02-17T08:25:10.055Z,100386.59
2023-02-17T08:30:07.674Z,100375.84
2023-02-17T08:35:05.543Z,100367.16
2023-02-17T08:40:02.032Z,100372.31
2023-02-17T08:44:58.401Z,100364.16
2023-02-17T08:49:54.937Z,100367.75
2023-02-17T08:54:52.703Z,100364.75
2023-02-17T08:59:49.478Z,100372.41
2023-02-17T09:04:46.155Z,100364.66
2023-02-17T09:09:43.467Z,100380.25
2023-02-17T09:14:40.208Z,100380.16
2023-02-17T09:19:38.854Z,100376.53
2023-02-17T09:24:38.542Z,100378.00
2023-02-17T09:29:38.090Z,100373.28
2023-02-17T09:34:37.349Z,100382.59
2023-02-17T09:39:33.685Z,100395.53
2023-02-17T09:44:40.767Z,100402.94
2023-02-17T09:49:42.901Z,100385.06
2023-02-17T09:55:01.276Z,100387.38
2023-02-17T10:00:01.650Z,100403.78
2023-02-17T10:05:03.176Z,100417.34
2023-02-17T10:10:14.109Z,100411.66
2023-02-17T10:15:26.391Z,100387.47
2023-02-17T10:20:28.478Z,100395.00
2023-02-17T10:25:44.021Z,100368.41
2023-02-17T10:30:50.442Z,100344.31
2023-02-17T10:36:10.333Z,100339.50
2023-02-17T10:41:12.390Z,100332.97
2023-02-17T10:46:09.955Z,100310.19
2023-02-17T10:51:06.828Z,100300.88
2023-02-17T10:56:11.628Z,100297.47
2023-02-17T11:01:08.581Z,100277.84
2023-02-17T11:06:07.365Z,100278.50
2023-02-17T11:11:25.680Z,100269.84
2023-02-17T11:16:27.483Z,100276.50
2023-02-17T11:21:23.882Z,100270.66
2023-02-17T11:26:27.464Z,100285.88
2023-02-17T11:31:30.626Z,100280.22
2023-02-17T11:36:30.268Z,100280.41
2023-02-17T11:41:26.635Z,100293.88
2023-02-17T11:46:31.945Z,100260.50
2023-02-17T11:51:56.089Z,100260.00
2023-02-17T11:57:24.400Z,100246.97
2023-02-17T12:02:39.362Z,100248.28
2023-02-17T12:07:40.504Z,100210.78
2023-02-17T12:12:55.250Z,100231.28
2023-02-17T12:18:24.368Z,100243.19
2023-02-17T12:23:52.570Z,100265.63
2023-02-17T12:29:12.330Z,100242.50
2023-02-17T12:34:29.934Z,100238.69
2023-02-17T12:39:40.860Z,100246.59
2023-02-17T12:44:43.496Z,100252.19
2023-02-17T12:49:46.219Z,100254.84
2023-02-17T12:54:53.003Z,100259.47
2023-02-17T12:59:51.956Z,100257.53
2023-02-17T13:04:57.137Z,100256.66
2023-02-17T13:09:55.510Z,100267.59
2023-02-17T13:14:53.664Z,100269.66
2023-02-17T13:20:05.075Z,100272.47
2023-02-17T13:25:01.382Z,100285.22
2023-02-17T13:30:02.868Z,100284.09
2023-02-17T13:35:06.169Z,100305.72
2023-02-17T13:40:17.927Z,100309.50
2023-02-17T13:45:28.574Z,100325.72
2023-02-17T13:50:31.180Z,100335.19
2023-02-17T13:55:27.655Z,100340.06
2023-02-17T14:00:31.725Z,100347.13
2023-02-17T14:05:40.347Z,100357.88
2023-02-17T14:10:36.795Z,100358.97
2023-02-17T14:15:33.205Z,100355.56
2023-02-17T14:20:36.288Z,100347.13
2023-02-17T14:25:36.318Z,100355.56
2023-02-17T14:30:32.726Z,100371.78
2023-02-17T14:35:29.563Z,100371.06
2023-02-17T14:40:26.307Z,100380.34
2023-02-17T14:45:22.780Z,100376.50
2023-02-17T14:50:19.122Z,100376.84
2023-02-17T14:55:30.803Z,100385.81
2023-02-17T15:00:27.889Z,100391.63
2023-02-17T15:05:25.224Z,100390.19
2023-02-17T15:10:27.342Z,100372.28
2023-02-17T15:15:23.748Z,100379.06
2023-02-17T15:20:20.114Z,100373.63
2023-02-17T15:25:24.093Z,100390.19
2023-02-17T15:30:21.297Z,100383.91
2023-02-17T15:35:22.885Z,100380.25
2023-02-17T15:40:21.963Z,100379.88
2023-02-17T15:45:20.318Z,100393.81
2023-02-17T15:50:22.983Z,100404.97
2023-02-17T15:55:20.320Z,100390.31
2023-02-17T16:00:24.366Z,100397.94
2023-02-17T16:05:24.151Z,100383.91
2023-02-17T16:10:23.503Z,100405.06
2023-02-17T16:15:22.825Z,100395.16
2023-02-17T16:20:25.327Z,100416.31
2023-02-17T16:25:23.037Z,100417.28
2023-02-17T16:30:29.487Z,100430.59
2023-02-17T16:35:29.098Z,100437.63
2023-02-17T16:40:28.371Z,100459.03
2023-02-17T16:45:27.890Z,100458.78
2023-02-17T16:50:34.786Z,100475.38
2023-02-17T16:55:34.426Z,100478.03
2023-02-17T17:00:32.890Z,100490.38
2023-02-17T17:05:29.431Z,100495.47
2023-02-17T17:10:31.138Z,100504.31
2023-02-17T17:15:28.189Z,100510.09
2023-02-17T17:20:36.789Z,100527.66
2023-02-17T17:25:36.545Z,100523.41
2023-02-17T17:30:38.231Z,100520.53
2023-02-17T17:35:34.804Z,100538.19
2023-02-17T17:40:48.019Z,100541.84
2023-02-17T17:45:44.559Z,100544.50
2023-02-17T17:50:41.819Z,100565.31
2023-02-17T17:55:38.297Z,100543.66
2023-02-17T18:00:34.710Z,100554.53
2023-02-17T18:05:31.122Z,100567.97
2023-02-17T18:10:27.560Z,100562.53
2023-02-17T18:15:24.533Z,100591.59
2023-02-17T18:20:21.174Z,100601.22
2023-02-17T18:25:18.170Z,100614.25
2023-02-17T18:30:18.912Z,100636.72
2023-02-17T18:35:16.151Z,100629.16
2023-02-17T18:40:15.351Z,100640.66
2023-02-17T18:45:12.299Z,100657.50
2023-02-17T18:50:10.188Z,100682.81
2023-02-17T18:55:07.120Z,100713.84
2023-02-17T19:00:05.579Z,100727.88
2023-02-17T19:05:01.836Z,100694.19
2023-02-17T19:09:58.452Z,100682.81
2023-02-17T19:14:56.063Z,100682.81
2023-02-17T19:19:52.571Z,100676.22
2023-02-17T19:24:53.413Z,100700.41
2023-02-17T19:29:49.740Z,100704.22
2023-02-17T19:34:46.061Z,100716.94
2023-02-17T19:39:42.381Z,100713.34
2023-02-17T19:44:38.728Z,100708.94
2023-02-17T19:49:35.524Z,100722.78
2023-02-17T19:54:32.887Z,100725.75
2023-02-17T19:59:31.989Z,100731.91
2023-02-17T20:04:28.305Z,100734.22
2023-02-17T20:09:24.654Z,100749.47
2023-02-17T20:14:21.734Z,100756.31
2023-02-17T20:19:18.136Z,100752.63
2023-02-17T20:24:14.929Z,100747.19
2023-02-17T20:29:12.144Z,100757.44
2023-02-17T20:34:22.123Z,100762.03
2023-02-17T20:39:19.841Z,100762.03
2023-02-17T20:44:16.242Z,100766.66
2023-02-17T20:49:13.982Z,100778.31
2023-02-17T20:54:10.310Z,100781.06
2023-02-17T20:59:08.903Z,100799.31
2023-02-17T21:04:05.270Z,100790.44
2023-02-17T21:09:06.409Z,100792.91
2023-02-17T21:14:02.807Z,100800.28
2023-02-17T21:19:00.829Z,100794.41
2023-02-17T21:23:57.652Z,100789.22
2023-02-17T21:28:54.757Z,100766.22
2023-02-17T21:33:51.357Z,100775.38
2023-02-17T21:38:47.968Z,100769.41
2023-02-17T21:44:03.227Z,100780.59
2023-02-17T21:49:01.053Z,100798.97
2023-02-17T21:53:57.886Z,100806.34
2023-02-17T21:58:54.957Z,100816.94
2023-02-17T22:03:52.271Z,100802.25
2023-02-17T22:08:49.083Z,100803.97
2023-02-17T22:13:45.575Z,100812.41
2023-02-17T22:18:41.980Z,100821.75
2023-02-17T22:23:39.550Z,100819.97
2023-02-17T22:28:36.011Z,100814.16
2023-02-17T22:33:32.465Z,100816.47
2023-02-17T22:38:28.950Z,100817.00
2023-02-17T22:43:25.424Z,100800.91
2023-02-17T22:48:21.700Z,100807.41
2023-02-17T22:53:18.446Z,100793.09
2023-02-17T22:58:15.238Z,100794.66
2023-02-17T23:03:11.600Z,100794.84
2023-02-17T23:08:07.972Z,100792.38
2023-02-17T23:13:04.340Z,100805.88
2023-02-17T23:18:00.700Z,100805.38
2023-02-17T23:22:57.310Z,100803.09
2023-02-17T23:27:53.693Z,100802.72
2023-02-17T23:32:50.097Z,100790.47
2023-02-17T23:37:46.403Z,100789.28
2023-02-17T23:42:43.014Z,100789.47
2023-02-17T23:47:39.301Z,100792.19
2023-02-17T23:52:35.767Z,100788.19
2023-02-17T23:57:36.037Z,100781.47
